Time;durP1;ratioP1;P1;durP2;ratioP2;P2;SDS_P1;SDS_P2;PMS_P1;PMS_P2;Temp;Humidity;BMP_temperature;BMP_pressure;BME280_temperature;BME280_humidity;BME280_pressure;Samples;Min_cycle;Max_cycle;Signal;HPM_P1;HPM_P2
2023/12/28 00:00:21;;;;;;;4.70;3.05;;;8.80;99.90;;;;;;6302465;22;20020;-76
2023/12/28 00:02:47;;;;;;;5.03;2.70;;;8.80;99.90;;;;;;6301572;22;20019;-76
2023/12/28 00:05:12;;;;;;;5.40;3.15;;;8.90;99.90;;;;;;6303457;22;20011;-76
2023/12/28 00:07:38;;;;;;;4.80;2.60;;;8.90;99.90;;;;;;6302961;22;20332;-76
2023/12/28 00:10:04;;;;;;;3.88;2.83;;;8.90;99.90;;;;;;6300891;22;20015;-76
2023/12/28 00:12:30;;;;;;;7.68;3.25;;;8.90;99.90;;;;;;6275336;22;20098;-76
2023/12/28 00:14:57;;;;;;;3.72;2.78;;;9.00;99.90;;;;;;6274981;22;20447;-76
2023/12/28 00:17:23;;;;;;;5.80;3.30;;;9.00;99.90;;;;;;6300693;22;20039;-76
2023/12/28 00:19:48;;;;;;;3.90;2.97;;;9.10;99.90;;;;;;6302944;22;20015;-76
2023/12/28 00:22:14;;;;;;;5.00;3.10;;;9.00;99.90;;;;;;6300149;22;20037;-75
2023/12/28 00:24:40;;;;;;;4.22;2.92;;;9.10;99.90;;;;;;6300436;22;20326;-76
2023/12/28 00:27:07;;;;;;;5.30;3.25;;;9.00;99.90;;;;;;6300430;22;20719;-76
2023/12/28 00:29:34;;;;;;;4.88;2.85;;;9.10;99.90;;;;;;6300543;22;20323;-76
2023/12/28 00:32:00;;;;;;;3.72;3.10;;;9.10;99.90;;;;;;6300764;22;20034;-76
2023/12/28 00:34:26;;;;;;;5.22;3.30;;;9.10;99.90;;;;;;6302490;22;20434;-76
2023/12/28 00:36:51;;;;;;;6.53;3.33;;;9.10;99.90;;;;;;6300216;22;20051;-76
2023/12/28 00:39:17;;;;;;;4.47;3.08;;;9.20;99.90;;;;;;6300953;22;20102;-75
2023/12/28 00:41:43;;;;;;;4.70;3.20;;;9.10;99.90;;;;;;6275202;22;20050;-75
2023/12/28 00:44:09;;;;;;;6.38;3.35;;;9.20;99.90;;;;;;6303165;22;20034;-75
2023/12/28 00:46:35;;;;;;;5.20;3.05;;;9.20;99.90;;;;;;6300812;22;20107;-75
2023/12/28 00:49:01;;;;;;;6.10;3.60;;;9.20;99.90;;;;;;6300470;22;20624;-76
2023/12/28 00:51:27;;;;;;;7.55;3.50;;;9.20;99.90;;;;;;6302531;22;20038;-75
2023/12/28 00:53:53;;;;;;;6.03;3.35;;;9.20;99.90;;;;;;6302063;22;20107;-75
2023/12/28 00:56:20;;;;;;;3.28;2.92;;;9.20;99.90;;;;;;6274406;22;20018;-75
2023/12/28 00:58:46;;;;;;;3.58;2.83;;;9.20;99.90;;;;;;6300363;22;20019;-75
2023/12/28 01:01:12;;;;;;;6.28;3.25;;;9.10;99.90;;;;;;6300127;22;20030;-76
2023/12/28 01:03:37;;;;;;;4.47;3.75;;;9.10;99.90;;;;;;6302378;22;20118;-75
2023/12/28 01:06:05;;;;;;;4.15;2.72;;;9.10;99.90;;;;;;6300257;22;20355;-75
2023/12/28 01:08:33;;;;;;;5.28;3.40;;;9.10;99.90;;;;;;6300290;22;20054;-75
2023/12/28 01:10:59;;;;;;;5.65;3.42;;;9.10;99.90;;;;;;6300204;22;20037;-75
2023/12/28 01:13:25;;;;;;;3.55;2.95;;;9.10;99.90;;;;;;6299963;22;20090;-75
2023/12/28 01:15:50;;;;;;;4.43;2.88;;;9.10;99.90;;;;;;6299955;22;20771;-75
2023/12/28 01:18:16;;;;;;;7.15;3.83;;;9.10;99.90;;;;;;6299921;22;20023;-75
2023/12/28 01:20:42;;;;;;;3.95;3.30;;;9.10;99.90;;;;;;6299735;22;20011;-75
2023/12/28 01:23:07;;;;;;;8.30;3.55;;;9.00;99.90;;;;;;6300492;22;20026;-75
2023/12/28 01:25:34;;;;;;;4.43;3.28;;;9.00;99.90;;;;;;6302071;22;20319;-74
2023/12/28 01:27:59;;;;;;;5.60;2.92;;;9.00;99.90;;;;;;6274232;22;20007;-75
2023/12/28 01:30:26;;;;;;;3.60;3.05;;;9.00;99.90;;;;;;6299887;22;20023;-75
2023/12/28 01:32:51;;;;;;;7.95;3.20;;;9.00;99.90;;;;;;6299545;22;20011;-75
2023/12/28 01:35:17;;;;;;;4.75;3.60;;;9.00;99.90;;;;;;6301732;22;20389;-75
2023/12/28 01:37:44;;;;;;;5.60;3.10;;;9.00;99.90;;;;;;6299875;22;20022;-75
2023/12/28 01:40:10;;;;;;;5.20;3.67;;;9.00;99.90;;;;;;6299744;22;20011;-75
2023/12/28 01:42:35;;;;;;;6.75;3.75;;;9.00;99.90;;;;;;6299811;22;20015;-75
2023/12/28 01:45:01;;;;;;;6.30;3.65;;;9.00;99.90;;;;;;6299664;22;20300;-75
2023/12/28 01:47:28;;;;;;;6.78;3.65;;;9.00;99.90;;;;;;6273536;22;20042;-75
2023/12/28 01:49:55;;;;;;;7.00;3.33;;;9.00;99.90;;;;;;6299578;22;20026;-75
2023/12/28 01:52:21;;;;;;;7.40;3.50;;;9.00;99.90;;;;;;6299747;22;20820;-75
2023/12/28 01:54:47;;;;;;;5.75;3.50;;;9.00;99.90;;;;;;6274233;22;20042;-75
2023/12/28 01:57:14;;;;;;;3.78;3.30;;;9.00;99.90;;;;;;6299921;22;20023;-75
2023/12/28 01:59:41;;;;;;;8.13;3.42;;;9.00;99.90;;;;;;6299843;22;20099;-75
2023/12/28 02:02:07;;;;;;;8.63;3.50;;;9.00;99.90;;;;;;6299730;22;20023;-75
2023/12/28 02:04:34;;;;;;;6.63;3.97;;;9.00;99.90;;;;;;6299756;22;20352;-74
2023/12/28 02:07:00;;;;;;;5.38;2.70;;;9.10;99.90;;;;;;6273801;22;20047;-74
2023/12/28 02:09:26;;;;;;;6.85;3.40;;;9.10;99.90;;;;;;6299629;22;20011;-75
2023/12/28 02:11:53;;;;;;;5.68;3.45;;;9.10;99.90;;;;;;6273880;22;20076;-75
2023/12/28 02:14:20;;;;;;;5.55;3.22;;;9.10;99.90;;;;;;6275208;22;20018;-75
2023/12/28 02:17:13;;;;;;;4.75;3.28;;;9.10;99.90;;;;;;6301470;22;20019;-74
2023/12/28 02:19:51;;;;;;;6.55;3.55;;;9.10;99.90;;;;;;6301866;22;20011;-75
2023/12/28 02:22:17;;;;;;;5.25;3.17;;;9.10;99.90;;;;;;6301661;22;20019;-75
2023/12/28 02:25:11;;;;;;;8.77;3.13;;;9.10;99.90;;;;;;6275736;22;20114;-75
2023/12/28 02:27:42;;;;;;;8.32;3.45;;;9.10;99.90;;;;;;6272673;22;20023;-75
2023/12/28 02:30:10;;;;;;;5.43;3.10;;;9.10;99.90;;;;;;6301529;22;20614;-75
2023/12/28 02:32:53;;;;;;;8.85;2.90;;;9.10;99.90;;;;;;6275706;22;20003;-75
2023/12/28 02:35:33;;;;;;;7.20;4.22;;;9.10;99.90;;;;;;6301488;22;20383;-75
2023/12/28 02:38:04;;;;;;;3.70;3.35;;;9.10;99.90;;;;;;6275704;22;20078;-75
2023/12/28 02:40:39;;;;;;;5.63;3.53;;;9.10;99.90;;;;;;6301623;22;20084;-75
2023/12/28 02:43:06;;;;;;;4.57;2.92;;;9.10;99.90;;;;;;6275611;22;20007;-75
2023/12/28 02:45:33;;;;;;;7.75;3.85;;;9.00;99.90;;;;;;6275131;22;20007;-74
2023/12/28 02:47:59;;;;;;;6.68;3.40;;;9.10;99.90;;;;;;6275718;22;20023;-75
2023/12/28 02:50:25;;;;;;;7.30;3.60;;;9.10;99.90;;;;;;6301172;22;20051;-76
2023/12/28 02:52:50;;;;;;;9.45;3.97;;;9.10;99.90;;;;;;6275545;22;20018;-76
2023/12/28 02:55:16;;;;;;;7.18;3.47;;;9.10;99.90;;;;;;6275575;22;20102;-76
2023/12/28 02:57:44;;;;;;;16.50;4.40;;;9.10;99.90;;;;;;6275729;22;20015;-76
2023/12/28 03:00:10;;;;;;;5.28;3.03;;;9.10;99.90;;;;;;6301246;22;20007;-76
2023/12/28 03:02:37;;;;;;;12.45;3.58;;;9.20;99.90;;;;;;6301709;22;20026;-75
2023/12/28 03:05:04;;;;;;;9.30;3.63;;;9.20;99.90;;;;;;6275852;22;20412;-75
2023/12/28 03:07:30;;;;;;;8.13;3.80;;;9.20;99.90;;;;;;6301505;22;20089;-75
2023/12/28 03:09:56;;;;;;;9.73;3.20;;;9.30;99.90;;;;;;6301346;22;20305;-76
2023/12/28 03:12:22;;;;;;;9.93;3.70;;;9.40;99.90;;;;;;6301288;22;20026;-76
2023/12/28 03:14:47;;;;;;;6.03;4.00;;;9.30;99.90;;;;;;6301250;22;20081;-76
2023/12/28 03:17:13;;;;;;;11.05;4.15;;;9.30;99.90;;;;;;6301254;22;20019;-76
2023/12/28 03:19:39;;;;;;;7.13;3.15;;;9.40;99.90;;;;;;6301535;22;20107;-75
2023/12/28 03:22:05;;;;;;;6.82;3.72;;;9.50;99.90;;;;;;6301394;22;20057;-75
2023/12/28 03:24:31;;;;;;;6.40;2.90;;;9.50;99.90;;;;;;6301353;22;20027;-76
2023/12/28 03:26:56;;;;;;;7.13;3.63;;;9.50;99.90;;;;;;6301509;22;20020;-75
2023/12/28 03:29:22;;;;;;;8.35;2.90;;;9.50;99.90;;;;;;6275225;22;20352;-76
2023/12/28 03:31:48;;;;;;;6.55;3.00;;;9.50;99.90;;;;;;6301404;22;20117;-75
2023/12/28 03:34:14;;;;;;;11.90;3.47;;;9.60;99.90;;;;;;6301351;22;20386;-76
2023/12/28 03:36:39;;;;;;;8.50;3.47;;;9.60;99.90;;;;;;6301643;22;20011;-75
2023/12/28 03:39:05;;;;;;;6.13;3.30;;;9.60;99.90;;;;;;6301310;22;20047;-75
2023/12/28 03:41:31;;;;;;;6.82;2.78;;;9.70;99.90;;;;;;6301200;22;20654;-75
2023/12/28 03:43:57;;;;;;;8.68;3.00;;;9.60;99.90;;;;;;6300598;22;20011;-75
2023/12/28 03:46:23;;;;;;;7.10;3.28;;;9.70;99.90;;;;;;6300914;22;20096;-75
2023/12/28 03:48:48;;;;;;;7.68;3.05;;;9.70;99.90;;;;;;6300721;22;20026;-75
2023/12/28 03:51:15;;;;;;;7.78;3.20;;;9.70;99.90;;;;;;6301044;22;20016;-75
2023/12/28 03:53:42;;;;;;;7.18;3.30;;;9.70;99.90;;;;;;6300757;22;20026;-75
2023/12/28 03:56:08;;;;;;;6.40;3.42;;;9.80;99.90;;;;;;6300580;22;20064;-75
2023/12/28 03:58:33;;;;;;;12.40;3.40;;;9.80;99.90;;;;;;6300493;22;20011;-75
2023/12/28 04:00:59;;;;;;;9.32;3.78;;;9.80;99.90;;;;;;6300718;22;20508;-74
2023/12/28 04:03:25;;;;;;;7.25;3.22;;;9.80;99.90;;;;;;6300465;22;20043;-75
2023/12/28 04:05:51;;;;;;;7.50;3.00;;;9.80;99.90;;;;;;6300541;22;20541;-75
2023/12/28 04:08:17;;;;;;;7.13;2.88;;;9.80;99.90;;;;;;6274631;22;20029;-75
2023/12/28 04:10:42;;;;;;;7.15;3.75;;;9.80;99.90;;;;;;6300494;22;20060;-74
2023/12/28 04:13:08;;;;;;;8.90;2.92;;;9.80;99.90;;;;;;6300216;22;20011;-75
2023/12/28 04:15:34;;;;;;;6.32;3.00;;;9.80;99.90;;;;;;6274704;22;20439;-75
2023/12/28 04:17:59;;;;;;;7.72;3.03;;;9.70;99.90;;;;;;6300526;22;20019;-75
2023/12/28 04:20:25;;;;;;;8.23;2.95;;;9.80;99.90;;;;;;6274572;22;20008;-75
2023/12/28 04:22:51;;;;;;;9.48;3.05;;;9.80;99.90;;;;;;6300533;22;20037;-75
2023/12/28 04:25:16;;;;;;;9.20;3.00;;;9.80;99.90;;;;;;6300454;22;20069;-75
2023/12/28 04:27:42;;;;;;;6.25;2.70;;;9.80;99.90;;;;;;6299797;22;20022;-75
2023/12/28 04:30:12;;;;;;;9.95;3.50;;;9.80;99.90;;;;;;6300196;22;20011;-75
2023/12/28 04:32:38;;;;;;;7.85;2.72;;;9.80;99.90;;;;;;6274387;22;20348;-75
2023/12/28 04:35:04;;;;;;;4.68;2.72;;;9.80;99.90;;;;;;6300163;22;20019;-75
2023/12/28 04:37:30;;;;;;;7.75;2.70;;;9.80;99.90;;;;;;6299969;22;20103;-75
2023/12/28 04:39:57;;;;;;;10.43;3.42;;;9.80;99.90;;;;;;6300092;22;20026;-75
2023/12/28 04:42:22;;;;;;;7.60;2.55;;;9.80;99.90;;;;;;6274148;22;20012;-75
2023/12/28 04:44:48;;;;;;;8.15;3.15;;;9.80;99.90;;;;;;6300543;22;20025;-75
2023/12/28 04:47:14;;;;;;;11.27;3.45;;;9.80;99.90;;;;;;6300190;22;20015;-75
2023/12/28 04:49:39;;;;;;;10.40;2.55;;;9.90;99.90;;;;;;6300044;22;20027;-75
2023/12/28 04:52:05;;;;;;;9.27;2.83;;;9.80;99.90;;;;;;6300709;22;20015;-74
2023/12/28 04:54:32;;;;;;;9.95;2.65;;;9.90;99.90;;;;;;6300453;22;20019;-75
2023/12/28 04:56:58;;;;;;;8.18;2.67;;;9.90;99.90;;;;;;6301512;22;20019;-75
2023/12/28 04:59:24;;;;;;;7.50;2.75;;;9.80;99.90;;;;;;6300932;22;20026;-76
2023/12/28 05:01:50;;;;;;;13.25;2.50;;;9.80;99.90;;;;;;6300708;22;20022;-75
2023/12/28 05:04:15;;;;;;;8.10;2.83;;;9.80;99.90;;;;;;6300550;22;20015;-76
2023/12/28 05:06:41;;;;;;;11.40;2.80;;;9.80;99.90;;;;;;6300361;22;20091;-76
2023/12/28 05:09:07;;;;;;;4.93;2.42;;;9.80;99.90;;;;;;6300534;22;20440;-75
2023/12/28 05:11:32;;;;;;;8.13;2.78;;;9.90;99.90;;;;;;6274405;22;20012;-76
2023/12/28 05:13:58;;;;;;;11.13;2.72;;;9.90;99.90;;;;;;6300606;22;20018;-75
2023/12/28 05:16:24;;;;;;;10.77;3.20;;;9.90;99.90;;;;;;6300427;22;20046;-75
2023/12/28 05:18:49;;;;;;;10.10;2.63;;;9.90;99.90;;;;;;6300497;22;20610;-75
2023/12/28 05:21:15;;;;;;;12.02;2.72;;;9.90;99.90;;;;;;6302275;22;20027;-75
2023/12/28 05:23:40;;;;;;;10.60;2.78;;;9.90;99.90;;;;;;6302666;22;20758;-76
2023/12/28 05:26:06;;;;;;;8.25;2.92;;;10.00;99.90;;;;;;6301752;22;20030;-75
2023/12/28 05:28:32;;;;;;;8.95;2.42;;;9.90;99.90;;;;;;6302318;22;20008;-76
2023/12/28 05:31:01;;;;;;;13.50;2.80;;;10.00;99.90;;;;;;6302580;22;20015;-75
2023/12/28 05:33:27;;;;;;;10.98;2.92;;;10.00;99.90;;;;;;6302404;22;20376;-76
2023/12/28 05:35:52;;;;;;;7.40;3.15;;;10.00;99.90;;;;;;6300286;22;20098;-75
2023/12/28 05:38:18;;;;;;;7.35;2.60;;;10.10;99.90;;;;;;6300104;22;20016;-75
2023/12/28 05:40:44;;;;;;;10.07;3.00;;;10.10;99.90;;;;;;6300031;22;20324;-75
2023/12/28 05:43:11;;;;;;;6.88;2.70;;;10.10;99.90;;;;;;6300305;22;20034;-75
2023/12/28 05:45:37;;;;;;;12.20;2.50;;;10.10;99.90;;;;;;6302047;22;20019;-75
2023/12/28 05:48:03;;;;;;;7.57;2.30;;;10.10;99.90;;;;;;6301364;22;20095;-75
2023/12/28 05:50:28;;;;;;;17.33;2.90;;;10.10;99.90;;;;;;6302347;22;20023;-75
2023/12/28 05:52:54;;;;;;;12.73;2.90;;;10.10;99.90;;;;;;6304177;22;20007;-76
2023/12/28 05:55:21;;;;;;;9.15;2.17;;;10.10;99.90;;;;;;6301634;22;20517;-76
2023/12/28 05:57:47;;;;;;;11.38;3.00;;;10.10;99.90;;;;;;6302328;22;20296;-75
2023/12/28 06:00:14;;;;;;;13.15;3.10;;;10.20;99.90;;;;;;6302003;22;20343;-75
2023/12/28 06:02:41;;;;;;;19.15;3.78;;;10.20;99.90;;;;;;6301987;22;20504;-75
2023/12/28 06:05:07;;;;;;;9.73;2.70;;;10.20;99.90;;;;;;6302065;22;20344;-76
2023/12/28 06:07:33;;;;;;;9.98;3.15;;;10.20;99.90;;;;;;6301927;22;20011;-75
2023/12/28 06:09:59;;;;;;;18.13;2.75;;;10.20;99.90;;;;;;6301895;22;20011;-76
2023/12/28 06:12:24;;;;;;;9.80;2.60;;;10.30;99.90;;;;;;6302159;22;20022;-75
2023/12/28 06:14:50;;;;;;;10.95;3.50;;;10.30;99.90;;;;;;6302246;22;20023;-76
2023/12/28 06:17:18;;;;;;;17.88;3.03;;;10.30;99.90;;;;;;6302477;22;20025;-76
2023/12/28 06:19:44;;;;;;;13.13;2.85;;;10.30;99.90;;;;;;6302422;22;20068;-76
2023/12/28 06:22:09;;;;;;;10.95;3.08;;;10.30;99.90;;;;;;6301959;22;20011;-76
2023/12/28 06:24:40;;;;;;;10.48;3.47;;;10.30;99.90;;;;;;6301669;22;20007;-75
2023/12/28 06:27:06;;;;;;;11.93;2.92;;;10.30;99.90;;;;;;6303465;22;20446;-76
2023/12/28 06:29:32;;;;;;;15.90;2.85;;;10.30;99.90;;;;;;6301974;22;20069;-76
2023/12/28 06:31:57;;;;;;;9.07;2.80;;;10.40;99.90;;;;;;6301823;22;20011;-76
2023/12/28 06:34:23;;;;;;;17.90;3.00;;;10.40;99.90;;;;;;6301711;22;20049;-76
2023/12/28 06:36:49;;;;;;;15.55;3.90;;;10.40;99.90;;;;;;6276026;22;20022;-76
2023/12/28 06:39:14;;;;;;;12.55;3.05;;;10.30;99.90;;;;;;6301387;22;20007;-76
2023/12/28 06:41:40;;;;;;;11.18;3.03;;;10.40;99.90;;;;;;6301784;22;20080;-75
2023/12/28 06:44:06;;;;;;;12.65;3.63;;;10.40;99.90;;;;;;6301724;22;20269;-76
2023/12/28 06:46:31;;;;;;;13.80;2.92;;;10.40;99.90;;;;;;6275690;22;20019;-76
2023/12/28 06:48:58;;;;;;;18.02;4.03;;;10.40;99.90;;;;;;6301515;22;20019;-75
2023/12/28 06:51:25;;;;;;;9.85;2.63;;;10.40;99.90;;;;;;6303551;22;20015;-74
2023/12/28 06:53:51;;;;;;;9.50;2.45;;;10.40;99.90;;;;;;6275639;22;20402;-76
2023/12/28 06:56:17;;;;;;;13.25;2.75;;;10.50;99.90;;;;;;6301691;22;20014;-75
2023/12/28 06:58:43;;;;;;;7.65;2.08;;;10.50;99.90;;;;;;6301308;22;20015;-76
2023/12/28 07:01:08;;;;;;;19.67;3.67;;;10.50;99.90;;;;;;6301482;22;20301;-75
2023/12/28 07:03:34;;;;;;;8.55;2.42;;;10.50;99.90;;;;;;6301581;22;20011;-76
2023/12/28 07:06:00;;;;;;;9.70;2.92;;;10.50;99.90;;;;;;6301671;22;20072;-76
2023/12/28 07:08:26;;;;;;;17.08;3.78;;;10.50;99.90;;;;;;6301370;22;20012;-76
2023/12/28 07:10:52;;;;;;;17.00;3.03;;;10.60;99.90;;;;;;6301709;22;20640;-76
2023/12/28 07:13:18;;;;;;;15.60;3.17;;;10.50;99.90;;;;;;6301453;22;20114;-76
2023/12/28 07:15:43;;;;;;;21.90;4.47;;;10.60;99.90;;;;;;6301481;22;20134;-76
2023/12/28 07:18:09;;;;;;;20.77;3.17;;;10.60;99.90;;;;;;6301399;22;20017;-75
2023/12/28 07:20:35;;;;;;;12.98;2.90;;;10.60;99.90;;;;;;6300968;22;20046;-75
2023/12/28 07:23:00;;;;;;;17.67;3.45;;;10.60;99.90;;;;;;6300950;22;20018;-75
2023/12/28 07:25:26;;;;;;;12.43;3.17;;;10.60;99.90;;;;;;6301495;22;20019;-75
2023/12/28 07:27:52;;;;;;;16.42;3.10;;;10.60;99.90;;;;;;6303454;22;20547;-75
2023/12/28 07:30:17;;;;;;;16.30;2.85;;;10.60;99.90;;;;;;6301389;22;20076;-75
2023/12/28 07:32:44;;;;;;;12.18;3.05;;;10.60;99.90;;;;;;6301216;22;20026;-76
2023/12/28 07:35:10;;;;;;;18.20;3.22;;;10.60;99.90;;;;;;6302053;22;20083;-75
2023/12/28 07:37:36;;;;;;;17.60;3.85;;;10.60;99.90;;;;;;6307575;22;20105;-75
2023/12/28 07:40:03;;;;;;;14.35;3.03;;;10.60;99.90;;;;;;6307338;22;20042;-75
2023/12/28 07:42:29;;;;;;;13.05;3.15;;;10.60;99.90;;;;;;6307610;22;20082;-74
2023/12/28 07:44:55;;;;;;;10.77;2.83;;;10.60;99.90;;;;;;6306975;22;20043;-74
2023/12/28 07:47:21;;;;;;;15.18;3.75;;;10.60;99.90;;;;;;6307047;22;20022;-75
2023/12/28 07:49:46;;;;;;;21.67;5.07;;;10.60;99.90;;;;;;6307331;22;20023;-75
2023/12/28 07:52:12;;;;;;;14.05;3.30;;;10.70;99.90;;;;;;6307573;22;20057;-75
2023/12/28 07:54:38;;;;;;;14.48;3.65;;;10.70;99.90;;;;;;6304850;22;20031;-75
2023/12/28 07:57:04;;;;;;;18.60;3.58;;;10.70;99.90;;;;;;6302805;22;20023;-76
2023/12/28 07:59:29;;;;;;;17.52;3.03;;;10.70;99.90;;;;;;6301160;22;20011;-76
2023/12/28 08:01:56;;;;;;;25.85;4.60;;;10.70;99.90;;;;;;6302937;22;20335;-75
2023/12/28 08:04:21;;;;;;;21.45;3.33;;;10.70;99.90;;;;;;6300430;22;20047;-76
2023/12/28 08:06:47;;;;;;;14.75;3.20;;;10.70;99.90;;;;;;6275123;22;20018;-76
2023/12/28 08:09:13;;;;;;;15.35;3.00;;;10.70;99.90;;;;;;6300571;22;20014;-75
2023/12/28 08:11:38;;;;;;;14.43;2.90;;;10.70;99.90;;;;;;6300410;22;20015;-74
2023/12/28 08:14:05;;;;;;;14.55;3.20;;;10.70;99.90;;;;;;6301080;22;20015;-75
2023/12/28 08:16:30;;;;;;;20.73;4.40;;;10.70;99.90;;;;;;6303517;22;20015;-75
2023/12/28 08:18:56;;;;;;;13.50;2.97;;;10.70;99.90;;;;;;6303208;22;20007;-75
2023/12/28 08:21:22;;;;;;;22.92;3.25;;;10.70;99.90;;;;;;6303206;22;20301;-75
2023/12/28 08:23:48;;;;;;;15.23;3.05;;;10.70;99.90;;;;;;6301865;22;20019;-75
2023/12/28 08:26:13;;;;;;;18.77;3.42;;;10.70;99.90;;;;;;6301968;22;20443;-74
2023/12/28 08:28:40;;;;;;;22.08;3.53;;;10.70;99.90;;;;;;6301797;22;20466;-74
2023/12/28 08:31:07;;;;;;;16.40;3.35;;;10.70;99.90;;;;;;6301606;22;20011;-75
2023/12/28 08:33:33;;;;;;;14.50;2.85;;;10.70;99.90;;;;;;6301541;22;20012;-75
2023/12/28 08:35:59;;;;;;;24.58;3.85;;;10.70;99.90;;;;;;6301633;22;20011;-75
2023/12/28 08:38:25;;;;;;;17.27;3.45;;;10.80;99.90;;;;;;6301626;22;20090;-75
2023/12/28 08:40:51;;;;;;;16.63;3.33;;;10.70;99.90;;;;;;6301749;22;20047;-75
2023/12/28 08:43:16;;;;;;;20.80;3.25;;;10.70;99.90;;;;;;6301252;22;20335;-74
2023/12/28 08:45:42;;;;;;;22.10;3.38;;;10.70;99.90;;;;;;6301151;22;20012;-75
2023/12/28 08:48:08;;;;;;;16.02;2.92;;;10.80;99.90;;;;;;6275118;22;20351;-75
2023/12/28 08:50:34;;;;;;;20.10;4.28;;;10.80;99.90;;;;;;6300640;22;20027;-76
2023/12/28 08:52:59;;;;;;;18.30;3.53;;;10.80;99.90;;;;;;6275268;22;20019;-76
2023/12/28 08:55:25;;;;;;;21.05;3.38;;;10.80;99.90;;;;;;6300970;22;20015;-76
2023/12/28 08:57:51;;;;;;;21.92;3.60;;;10.80;99.90;;;;;;6275441;22;20015;-76
2023/12/28 09:00:16;;;;;;;22.92;4.40;;;10.80;99.90;;;;;;6301169;22;20026;-76
2023/12/28 09:02:42;;;;;;;15.07;3.40;;;10.80;99.90;;;;;;6300685;22;20021;-75
2023/12/28 09:05:09;;;;;;;26.15;4.13;;;10.80;99.90;;;;;;6275043;22;20088;-76
2023/12/28 09:07:36;;;;;;;21.10;4.07;;;10.80;99.90;;;;;;6300295;22;20023;-75
2023/12/28 09:10:03;;;;;;;15.68;3.17;;;10.80;99.90;;;;;;6300533;22;20023;-72
2023/12/28 09:12:29;;;;;;;19.83;3.55;;;10.80;99.90;;;;;;6300537;22;20382;-76
2023/12/28 09:14:55;;;;;;;22.40;3.63;;;10.80;99.90;;;;;;6300360;22;20026;-76
2023/12/28 09:17:24;;;;;;;20.67;3.75;;;10.80;99.90;;;;;;6300104;22;20022;-73
2023/12/28 09:19:50;;;;;;;26.10;4.50;;;10.80;99.90;;;;;;6300218;22;20018;-76
2023/12/28 09:22:15;;;;;;;24.45;4.50;;;10.80;99.90;;;;;;6300098;22;20023;-75
2023/12/28 09:24:41;;;;;;;14.18;3.40;;;10.80;99.90;;;;;;6300830;22;20171;-76
2023/12/28 09:27:07;;;;;;;18.27;2.70;;;10.80;99.90;;;;;;6300672;22;20018;-75
2023/12/28 09:29:34;;;;;;;17.25;3.25;;;10.80;99.90;;;;;;6300278;22;20007;-76
2023/12/28 09:31:59;;;;;;;23.92;4.30;;;10.80;99.90;;;;;;6274338;22;20022;-75
2023/12/28 09:34:25;;;;;;;18.27;3.85;;;10.80;99.90;;;;;;6274587;22;20021;-76
2023/12/28 09:36:51;;;;;;;18.00;3.15;;;10.90;99.90;;;;;;6300587;22;20084;-76
2023/12/28 09:39:17;;;;;;;22.05;4.20;;;10.80;99.90;;;;;;6300723;22;20080;-75
2023/12/28 09:41:47;;;;;;;19.80;4.03;;;10.90;99.90;;;;;;6300758;22;20062;-75
2023/12/28 09:44:14;;;;;;;20.70;3.72;;;10.90;99.90;;;;;;6301027;22;20186;-76
2023/12/28 09:46:44;;;;;;;18.05;4.13;;;10.90;99.90;;;;;;6300395;22;20019;-76
2023/12/28 09:49:11;;;;;;;24.17;4.50;;;10.90;99.90;;;;;;6299566;22;20085;-74
2023/12/28 09:51:37;;;;;;;18.95;4.05;;;10.90;99.90;;;;;;6274714;22;20347;-74
2023/12/28 09:54:05;;;;;;;18.80;4.05;;;10.90;99.90;;;;;;6299359;22;20026;-76
2023/12/28 09:56:33;;;;;;;21.40;5.43;;;10.90;99.90;;;;;;6300423;22;20448;-72
2023/12/28 09:58:59;;;;;;;22.52;6.25;;;10.90;99.90;;;;;;6302608;22;20022;-72
2023/12/28 10:01:25;;;;;;;25.02;6.72;;;10.90;99.90;;;;;;6300243;22;20039;-71
2023/12/28 10:03:51;;;;;;;19.10;3.55;;;11.00;99.90;;;;;;6300733;22;20111;-71
2023/12/28 10:06:16;;;;;;;23.02;4.25;;;10.90;99.90;;;;;;6300700;22;20033;-71
2023/12/28 10:08:49;;;;;;;19.35;3.63;;;10.90;99.90;;;;;;6302054;22;20367;-71
2023/12/28 10:11:18;;;;;;;;;;;10.90;99.90;;;;;;6301159;22;20096;-71
2023/12/28 10:13:44;;;;;;;20.70;3.88;;;10.90;99.90;;;;;;6302296;22;19915;-71
2023/12/28 10:16:11;;;;;;;11.35;3.72;;;10.90;99.90;;;;;;6300346;22;20023;-71
2023/12/28 10:18:42;;;;;;;18.23;3.53;;;10.90;99.90;;;;;;6300817;22;20018;-72
2023/12/28 10:21:08;;;;;;;19.13;4.45;;;10.90;99.90;;;;;;6300379;22;20011;-71
2023/12/28 10:23:34;;;;;;;25.75;4.10;;;11.00;99.90;;;;;;6300645;22;20011;-71
2023/12/28 10:26:00;;;;;;;18.30;3.58;;;11.00;99.90;;;;;;6300768;22;20019;-71
2023/12/28 10:28:26;;;;;;;18.27;4.40;;;11.00;99.90;;;;;;6300639;22;20393;-71
2023/12/28 10:30:58;;;;;;;31.13;8.95;;;11.00;99.90;;;;;;6300073;22;20078;-71
2023/12/28 10:33:25;;;;;;;30.58;7.50;;;11.00;99.90;;;;;;6274620;22;20026;-72
2023/12/28 10:35:51;;;;;;;27.45;7.80;;;11.00;99.90;;;;;;6302308;22;20347;-71
2023/12/28 10:38:17;;;;;;;22.48;6.13;;;11.00;99.90;;;;;;6302284;22;20022;-71
2023/12/28 10:40:48;;;;;;;15.98;5.82;;;11.00;99.90;;;;;;6302442;22;20145;-71
2023/12/28 10:43:19;;;;;;;16.40;4.40;;;11.00;99.90;;;;;;6302430;22;20019;-71
2023/12/28 10:45:52;;;;;;;24.02;4.53;;;11.00;99.90;;;;;;6304329;22;20030;-71
2023/12/28 10:48:21;;;;;;;;;;;11.00;99.90;;;;;;6304596;22;20082;-71
2023/12/28 10:50:49;;;;;;;17.75;3.88;;;10.90;99.90;;;;;;6303021;22;19921;-70
2023/12/28 10:53:33;;;;;;;15.23;3.80;;;11.00;99.90;;;;;;6277061;22;20094;-72
2023/12/28 10:56:18;;;;;;;19.73;3.97;;;11.00;99.90;;;;;;6302283;22;20026;-71
2023/12/28 10:59:15;;;;;;;18.83;4.32;;;11.00;99.90;;;;;;6301951;22;20054;-71
2023/12/28 11:01:46;;;;;;;24.27;8.68;;;11.00;99.90;;;;;;6250134;22;20086;-72
2023/12/28 11:04:36;;;;;;;13.77;3.95;;;10.90;99.90;;;;;;6302301;22;20027;-71
2023/12/28 11:07:05;;;;;;;17.92;3.42;;;11.00;99.90;;;;;;6304081;22;20343;-70
2023/12/28 11:09:32;;;;;;;20.77;4.03;;;11.00;99.90;;;;;;6302517;22;20700;-71
2023/12/28 11:12:00;;;;;;;18.75;4.03;;;11.00;99.90;;;;;;6304555;22;20015;-71
2023/12/28 11:14:29;;;;;;;23.92;3.75;;;11.10;99.90;;;;;;6303926;22;20015;-70
2023/12/28 11:16:58;;;;;;;18.20;3.90;;;11.10;99.90;;;;;;6303763;22;20078;-70
2023/12/28 11:19:24;;;;;;;17.88;3.40;;;11.10;99.90;;;;;;6303375;22;20096;-71
2023/12/28 11:21:51;;;;;;;17.48;3.53;;;11.10;99.90;;;;;;6303127;22;20023;-71
2023/12/28 11:24:18;;;;;;;24.65;5.15;;;11.10;99.90;;;;;;6301585;22;20015;-71
2023/12/28 11:26:51;;;;;;;26.15;4.10;;;11.10;99.90;;;;;;6301504;22;20015;-71
2023/12/28 11:29:19;;;;;;;26.73;4.72;;;11.20;99.90;;;;;;6301456;22;20442;-71
2023/12/28 11:31:51;;;;;;;14.98;4.45;;;11.20;99.90;;;;;;6301785;22;20026;-71
2023/12/28 11:34:17;;;;;;;21.25;3.95;;;11.20;99.90;;;;;;6303902;22;20019;-71
2023/12/28 11:36:51;;;;;;;20.80;4.63;;;11.20;99.90;;;;;;6301737;22;20384;-71
2023/12/28 11:39:30;;;;;;;15.82;4.93;;;11.20;99.90;;;;;;6302004;22;20022;-71
2023/12/28 11:42:02;;;;;;;20.48;4.60;;;11.20;99.90;;;;;;6301836;22;20015;-71
2023/12/28 11:44:29;;;;;;;20.80;4.10;;;11.20;99.90;;;;;;6276042;22;20018;-71
2023/12/28 11:46:56;;;;;;;22.60;3.95;;;11.20;99.90;;;;;;6301431;22;20012;-72
2023/12/28 11:49:28;;;;;;;18.85;3.38;;;11.20;99.90;;;;;;6275705;22;20019;-71
2023/12/28 11:51:58;;;;;;;17.02;4.65;;;11.20;99.90;;;;;;6251035;22;20015;-71
2023/12/28 11:54:25;;;;;;;25.67;3.67;;;11.20;99.90;;;;;;6303355;22;20390;-71
2023/12/28 11:56:52;;;;;;;13.52;3.13;;;11.20;99.90;;;;;;6303543;22;20085;-71
2023/12/28 11:59:19;;;;;;;17.13;4.03;;;11.20;99.90;;;;;;6301580;22;20066;-77
2023/12/28 12:01:52;;;;;;;18.73;5.25;;;11.20;99.90;;;;;;6301243;22;20262;-76
2023/12/28 12:04:19;;;;;;;23.80;4.30;;;11.10;99.90;;;;;;6301010;22;20046;-77
2023/12/28 12:06:50;;;;;;;22.55;4.63;;;11.10;99.90;;;;;;6300981;22;20097;-77
2023/12/28 12:09:16;;;;;;;20.15;4.72;;;11.10;99.90;;;;;;6301106;22;20172;-77
2023/12/28 12:11:41;;;;;;;19.70;4.22;;;11.10;99.90;;;;;;6300282;22;20053;-77
2023/12/28 12:14:11;;;;;;;16.80;3.92;;;11.00;99.90;;;;;;6302582;22;20026;-70
2023/12/28 12:16:38;;;;;;;21.05;3.40;;;11.00;99.90;;;;;;6302808;22;20347;-77
2023/12/28 12:19:07;;;;;;;22.10;4.45;;;11.00;99.90;;;;;;6300888;22;20072;-77
2023/12/28 12:21:34;;;;;;;23.50;4.88;;;11.00;99.90;;;;;;6300703;22;20021;-77
2023/12/28 12:24:00;;;;;;;22.58;7.82;;;10.90;99.90;;;;;;6301169;22;20402;-77
2023/12/28 12:26:27;;;;;;;22.80;5.38;;;10.90;99.90;;;;;;6274996;22;20122;-77
2023/12/28 12:28:53;;;;;;;26.17;5.07;;;10.90;99.90;;;;;;6300940;22;20022;-77
2023/12/28 12:31:19;;;;;;;18.15;4.35;;;10.90;99.90;;;;;;6300959;22;20380;-77
2023/12/28 12:33:45;;;;;;;20.50;5.07;;;10.90;99.90;;;;;;6301141;22;20347;-77
2023/12/28 12:36:11;;;;;;;20.08;4.13;;;10.80;99.90;;;;;;6301142;22;20026;-77
2023/12/28 12:38:36;;;;;;;23.42;4.70;;;10.80;99.90;;;;;;6301038;22;20019;-77
2023/12/28 12:41:03;;;;;;;20.80;4.15;;;10.90;99.90;;;;;;6302573;22;20044;-77
2023/12/28 12:43:29;;;;;;;20.63;4.65;;;10.90;99.90;;;;;;6300982;22;20057;-77